Time;durP1;ratioP1;P1;durP2;ratioP2;P2;SDS_P1;SDS_P2;PMS_P1;PMS_P2;Temp;Humidity;BMP_temperature;BMP_pressure;BME280_temperature;BME280_humidity;BME280_pressure;Samples;Min_cycle;Max_cycle;Signal;HPM_P1;HPM_P2
2022/09/20 00:00:45;;;;;;;0.50;0.50;;;;;;;14.15;85.00;99306.38;5093318;28;20195;-64
2022/09/20 00:03:13;;;;;;;0.53;0.53;;;;;;;14.13;85.53;99303.84;5092248;28;20191;-65
2022/09/20 00:05:43;;;;;;;0.50;0.50;;;;;;;14.12;85.67;99296.19;5090515;28;20207;-64
2022/09/20 00:08:12;;;;;;;0.40;0.40;;;;;;;14.09;85.42;99293.75;5093193;28;20195;-64
2022/09/20 00:10:39;;;;;;;0.40;0.40;;;;;;;14.13;84.89;99303.00;5093128;28;20686;-64
2022/09/20 00:13:08;;;;;;;0.40;0.40;;;;;;;14.15;84.84;99303.81;5093384;28;20267;-65
2022/09/20 00:15:41;;;;;;;0.47;0.47;;;;;;;14.16;84.84;99303.72;5093045;28;20196;-64
2022/09/20 00:18:08;;;;;;;0.50;0.50;;;;;;;14.19;84.44;99302.72;5092876;28;20205;-64
2022/09/20 00:20:35;;;;;;;0.40;0.40;;;;;;;14.20;83.93;99294.94;5092841;28;20200;-64
2022/09/20 00:23:02;;;;;;;0.40;0.40;;;;;;;14.22;83.74;99297.44;5092673;28;20204;-64
2022/09/20 00:25:28;;;;;;;0.50;0.50;;;;;;;14.28;83.59;99297.13;5092932;28;20203;-64
2022/09/20 00:27:55;;;;;;;0.40;0.40;;;;;;;14.30;82.99;99297.91;5092605;28;20226;-64
2022/09/20 00:30:22;;;;;;;0.40;0.40;;;;;;;14.32;82.95;99306.41;5093057;28;20273;-64
2022/09/20 00:32:50;;;;;;;0.60;0.60;;;;;;;14.28;83.00;99284.25;5092589;28;20206;-63
2022/09/20 00:35:16;;;;;;;0.50;0.50;;;;;;;14.34;82.65;99289.16;5092912;28;20591;-64
2022/09/20 00:37:44;;;;;;;0.47;0.47;;;;;;;14.32;82.66;99295.25;5092640;28;20192;-64
2022/09/20 00:40:14;;;;;;;0.47;0.47;;;;;;;14.26;82.95;99298.97;5092439;28;20567;-64
2022/09/20 00:42:41;;;;;;;0.50;0.50;;;;;;;14.28;83.07;99297.13;5092463;28;20206;-64
2022/09/20 00:45:19;;;;;;;0.40;0.40;;;;;;;14.27;83.40;99300.66;5092339;28;20195;-63
2022/09/20 00:47:52;;;;;;;0.50;0.50;;;;;;;14.29;83.43;99303.97;5092269;28;20206;-64
2022/09/20 00:50:27;;;;;;;0.50;0.50;;;;;;;14.22;84.00;99306.94;5092310;28;20219;-64
2022/09/20 00:52:59;;;;;;;0.47;0.47;;;;;;;14.23;83.82;99304.25;5092281;28;20194;-63
2022/09/20 00:55:27;;;;;;;0.53;0.53;;;;;;;14.19;84.01;99302.72;5092290;28;20199;-64
2022/09/20 00:57:54;;;;;;;0.50;0.50;;;;;;;14.11;84.16;99294.53;5092535;28;20206;-63
2022/09/20 01:00:21;;;;;;;0.40;0.40;;;;;;;14.17;83.97;99313.13;5086248;28;20203;-64
2022/09/20 01:02:53;;;;;;;0.40;0.40;;;;;;;14.20;84.52;99296.66;5091964;28;20664;-64
2022/09/20 01:05:21;;;;;;;0.37;0.37;;;;;;;14.16;84.64;99287.41;5092036;28;20200;-64
2022/09/20 01:07:51;;;;;;;0.47;0.47;;;;;;;14.11;85.36;99294.53;5092447;28;20199;-63
2022/09/20 01:10:18;;;;;;;0.30;0.30;;;;;;;14.06;86.00;99288.72;5091106;28;20276;-64
2022/09/20 01:12:46;;;;;;;0.40;0.40;;;;;;;14.03;85.96;99291.44;5092128;28;20223;-63
2022/09/20 01:15:15;;;;;;;0.37;0.37;;;;;;;13.94;87.03;99289.28;5091774;28;20206;-64
2022/09/20 01:17:47;;;;;;;0.60;0.60;;;;;;;13.87;87.57;99287.91;5091892;28;20298;-64
2022/09/20 01:20:23;;;;;;;0.40;0.40;;;;;;;13.82;87.89;99280.41;5085491;28;20199;-64
2022/09/20 01:23:12;;;;;;;0.37;0.37;;;;;;;13.80;88.20;99283.91;5091876;28;20194;-64
2022/09/20 01:26:11;;;;;;;0.40;0.40;;;;;;;13.63;88.63;99267.47;5084947;28;20207;-63
2022/09/20 01:28:42;;;;;;;0.40;0.40;;;;;;;13.68;89.70;99290.47;5091757;28;20667;-64
2022/09/20 01:31:15;;;;;;;0.47;0.47;;;;;;;13.58;90.16;99279.75;5091862;28;20294;-64
2022/09/20 01:33:49;;;;;;;0.40;0.40;;;;;;;13.57;90.03;99283.22;5089106;28;20199;-64
2022/09/20 01:36:22;;;;;;;0.50;0.50;;;;;;;13.58;89.43;99282.31;5091678;28;20199;-64
2022/09/20 01:38:58;;;;;;;0.47;0.47;;;;;;;13.61;89.23;99294.22;5091761;28;20202;-64
2022/09/20 01:41:32;;;;;;;0.40;0.40;;;;;;;13.62;88.55;99291.59;5090018;28;20199;-64
2022/09/20 01:44:13;;;;;;;0.40;0.40;;;;;;;13.60;89.14;99302.88;5092023;28;20203;-64
2022/09/20 01:46:42;;;;;;;0.50;0.50;;;;;;;13.64;88.62;99310.38;5091604;28;20564;-64
2022/09/20 01:49:29;;;;;;;0.40;0.40;;;;;;;13.62;88.38;99307.03;5091541;28;20218;-64
2022/09/20 01:52:31;;;;;;;0.50;0.50;;;;;;;13.53;88.27;99297.16;5091446;28;20191;-63
2022/09/20 01:55:39;;;;;;;0.40;0.40;;;;;;;13.55;88.20;99318.50;5089519;28;20199;-64
2022/09/20 01:58:49;;;;;;;0.33;0.33;;;;;;;13.51;88.57;99305.81;5088658;28;20591;-64
2022/09/20 02:01:42;;;;;;;0.47;0.47;;;;;;;13.51;88.00;99309.22;5089027;28;20249;-65
2022/09/20 02:04:33;;;;;;;0.73;0.73;;;;;;;13.49;88.35;99312.78;5091182;28;20199;-63
2022/09/20 02:07:17;;;;;;;0.40;0.40;;;;;;;13.48;88.58;99313.69;5091528;28;20211;-64
2022/09/20 02:10:07;;;;;;;0.40;0.40;;;;;;;13.38;88.68;99312.41;5091224;28;20218;-64
2022/09/20 02:12:52;;;;;;;0.43;0.43;;;;;;;13.34;88.73;99314.28;5089167;28;20610;-64
2022/09/20 02:15:45;;;;;;;0.40;0.40;;;;;;;13.25;88.62;99291.50;5091256;28;20199;-65
2022/09/20 02:18:32;;;;;;;0.40;0.40;;;;;;;13.33;88.37;99311.78;5078961;28;20206;-64
2022/09/20 02:21:04;;;;;;;0.50;0.50;;;;;;;13.27;88.66;99315.44;5091331;28;20630;-64
2022/09/20 02:23:44;;;;;;;0.50;0.50;;;;;;;13.23;88.30;99313.91;5094427;28;20202;-64
2022/09/20 02:26:27;;;;;;;0.50;0.50;;;;;;;13.15;88.90;99300.50;5095403;28;20201;-64
2022/09/20 02:29:02;;;;;;;0.40;0.40;;;;;;;13.17;89.23;99315.91;5095126;28;20241;-64
2022/09/20 02:31:56;;;;;;;0.50;0.50;;;;;;;13.16;88.08;99320.19;5094962;28;20202;-64
2022/09/20 02:34:43;;;;;;;0.53;0.53;;;;;;;13.15;88.07;99313.38;5092666;28;20203;-63
2022/09/20 02:37:27;;;;;;;0.40;0.40;;;;;;;13.15;87.70;99315.94;5094830;28;20198;-64
2022/09/20 02:40:08;;;;;;;0.50;0.50;;;;;;;13.16;87.36;99322.78;5093832;28;20202;-65
2022/09/20 02:42:38;;;;;;;0.50;0.50;;;;;;;13.01;86.53;99307.94;5094927;28;20555;-64
2022/09/20 02:45:14;;;;;;;0.40;0.40;;;;;;;13.13;86.42;99322.91;5094908;28;20690;-64
2022/09/20 02:47:43;;;;;;;0.50;0.50;;;;;;;13.06;85.75;99311.16;5094943;28;20666;-64
2022/09/20 02:50:26;;;;;;;0.60;0.60;;;;;;;13.04;85.40;99295.78;5094576;28;20214;-64
2022/09/20 02:53:06;;;;;;;0.40;0.40;;;;;;;13.19;84.96;99321.81;5094759;28;20207;-64
2022/09/20 02:55:41;;;;;;;0.50;0.50;;;;;;;13.19;85.36;99332.09;5094779;28;20869;-64
2022/09/20 02:58:21;;;;;;;0.37;0.37;;;;;;;13.17;84.91;99339.91;5094328;28;20199;-64
2022/09/20 03:00:59;;;;;;;0.60;0.60;;;;;;;13.23;84.68;99347.38;5094350;28;20616;-64
2022/09/20 03:03:40;;;;;;;0.40;0.40;;;;;;;13.25;85.03;99342.97;5094506;28;20210;-64
2022/09/20 03:06:18;;;;;;;0.40;0.40;;;;;;;13.22;85.33;99343.09;5094269;28;20195;-64
2022/09/20 03:08:54;;;;;;;0.50;0.50;;;;;;;13.18;85.79;99341.59;5094706;28;20202;-64
2022/09/20 03:11:29;;;;;;;0.40;0.40;;;;;;;13.21;85.43;99336.31;5094513;28;20264;-65
2022/09/20 03:14:21;;;;;;;0.50;0.50;;;;;;;13.19;85.09;99345.81;5091457;28;20226;-65
2022/09/20 03:17:04;;;;;;;0.40;0.40;;;;;;;13.13;85.09;99348.66;5078919;28;20253;-64
2022/09/20 03:19:43;;;;;;;0.47;0.47;;;;;;;13.17;85.41;99357.06;5091776;28;20196;-64
2022/09/20 03:22:22;;;;;;;0.50;0.50;;;;;;;13.12;85.15;99355.53;5094336;28;20610;-64
2022/09/20 03:25:04;;;;;;;0.50;0.50;;;;;;;13.24;84.44;99367.06;5093937;28;20191;-64
2022/09/20 03:27:39;;;;;;;0.40;0.40;;;;;;;13.26;84.36;99369.56;5094035;28;20199;-64
2022/09/20 03:30:25;;;;;;;0.50;0.50;;;;;;;13.13;84.18;99353.78;5093993;28;20748;-64
2022/09/20 03:33:02;;;;;;;0.40;0.40;;;;;;;13.25;83.76;99379.03;5093936;28;20200;-64
2022/09/20 03:35:44;;;;;;;0.50;0.50;;;;;;;13.21;83.81;99372.34;5093417;28;20195;-64
2022/09/20 03:38:56;;;;;;;0.43;0.43;;;;;;;13.15;84.38;99377.72;5091776;28;20203;-64
2022/09/20 03:41:36;;;;;;;0.40;0.40;;;;;;;13.07;84.56;99370.31;5045769;28;20204;-65
2022/09/20 03:44:31;;;;;;;0.40;0.40;;;;;;;12.92;85.21;99364.94;5093556;28;20203;-64
2022/09/20 03:47:12;;;;;;;0.40;0.40;;;;;;;12.94;85.04;99379.41;5092187;28;20195;-64
2022/09/20 03:50:18;;;;;;;0.50;0.50;;;;;;;12.87;84.98;99383.13;5093498;28;20215;-64
2022/09/20 03:53:03;;;;;;;0.43;0.43;;;;;;;12.89;84.81;99377.94;5083938;28;20210;-64
2022/09/20 03:55:58;;;;;;;0.40;0.40;;;;;;;12.85;85.32;99389.22;5087541;28;20207;-64
2022/09/20 03:58:47;;;;;;;0.60;0.60;;;;;;;12.85;85.74;99396.94;5092466;28;20694;-64
2022/09/20 04:01:33;;;;;;;0.40;0.40;;;;;;;12.87;85.36;99401.13;5093552;28;20279;-64
2022/09/20 04:04:12;;;;;;;0.60;0.60;;;;;;;12.89;85.35;99391.59;5093215;28;20667;-64
2022/09/20 04:07:11;;;;;;;0.50;0.50;;;;;;;12.83;85.10;99391.84;5093376;28;20201;-64
2022/09/20 04:09:59;;;;;;;0.50;0.50;;;;;;;12.79;85.38;99390.31;5093105;28;20268;-64
2022/09/20 04:12:39;;;;;;;0.40;0.40;;;;;;;12.77;85.69;99396.41;5092894;28;20691;-65
2022/09/20 04:15:23;;;;;;;0.40;0.40;;;;;;;12.55;84.85;99361.25;5093122;28;20552;-64
2022/09/20 04:17:59;;;;;;;0.30;0.30;;;;;;;12.54;84.82;99369.00;5090095;28;20240;-64
2022/09/20 04:20:34;;;;;;;0.40;0.40;;;;;;;12.75;85.34;99403.34;5090609;28;20232;-64
2022/09/20 04:23:12;;;;;;;0.40;0.40;;;;;;;12.72;85.11;99413.75;5093336;28;20237;-64
2022/09/20 04:25:45;;;;;;;0.60;0.60;;;;;;;12.71;85.34;99415.47;5092894;28;20198;-64
2022/09/20 04:28:19;;;;;;;0.40;0.40;;;;;;;12.71;85.83;99417.22;5092977;28;20671;-65
2022/09/20 04:30:47;;;;;;;0.50;0.50;;;;;;;12.69;85.69;99406.16;5092683;28;20714;-64
2022/09/20 04:33:20;;;;;;;0.37;0.37;;;;;;;12.66;85.57;99403.72;5092556;28;20200;-64
2022/09/20 04:38:41;;;;;;;0.47;0.47;;;;;;;12.70;86.35;99413.00;5087268;28;20210;-63
2022/09/20 04:41:33;;;;;;;0.40;0.40;;;;;;;12.74;85.98;99417.09;5092401;28;20252;-63
2022/09/20 04:44:36;;;;;;;0.50;0.50;;;;;;;12.80;85.16;99416.84;5092632;28;20195;-64
2022/09/20 04:47:45;;;;;;;0.50;0.50;;;;;;;12.79;85.33;99410.06;5090049;28;20191;-63
2022/09/20 04:50:42;;;;;;;0.40;0.40;;;;;;;12.85;84.99;99410.66;5029962;28;20228;-63
2022/09/20 04:53:26;;;;;;;0.40;0.40;;;;;;;12.93;84.50;99403.44;5092430;28;20199;-65
2022/09/20 04:56:01;;;;;;;0.40;0.40;;;;;;;13.02;84.42;99413.38;5087661;28;20206;-66
2022/09/20 04:58:43;;;;;;;0.40;0.40;;;;;;;12.96;84.47;99403.34;5092312;28;20195;-62
2022/09/20 05:01:48;;;;;;;0.40;0.40;;;;;;;13.16;83.97;99415.44;5092418;28;20199;-63
2022/09/20 05:05:15;;;;;;;0.40;0.40;;;;;;;13.41;83.03;99426.41;5090337;28;20655;-63
2022/09/20 05:08:12;;;;;;;0.50;0.50;;;;;;;13.63;82.28;99416.88;5089416;28;20240;-64
2022/09/20 05:11:01;;;;;;;0.40;0.40;;;;;;;13.78;80.66;99393.97;5091262;28;20219;-63
2022/09/20 05:13:38;;;;;;;0.47;0.47;;;;;;;14.08;80.31;99410.66;5091932;28;20322;-63
2022/09/20 05:16:12;;;;;;;0.60;0.60;;;;;;;14.27;79.78;99408.09;5092067;28;20282;-63
2022/09/20 05:19:11;;;;;;;0.40;0.40;;;;;;;14.48;78.42;99415.72;5091861;28;20202;-66
2022/09/20 05:21:52;;;;;;;0.50;0.50;;;;;;;14.57;78.36;99417.88;5092019;28;20196;-63
2022/09/20 05:24:45;;;;;;;0.50;0.50;;;;;;;14.78;77.07;99410.06;5091892;28;20195;-63
2022/09/20 05:27:28;;;;;;;0.40;0.40;;;;;;;14.84;77.52;99415.75;5088148;28;20648;-64
2022/09/20 05:30:02;;;;;;;0.40;0.40;;;;;;;14.67;76.71;99407.97;5089259;28;20251;-64
2022/09/20 05:32:40;;;;;;;0.40;0.40;;;;;;;14.62;77.49;99426.25;5091337;28;20208;-64
2022/09/20 05:35:18;;;;;;;0.50;0.50;;;;;;;14.52;77.25;99430.16;5091545;28;20233;-64
2022/09/20 05:37:52;;;;;;;0.50;0.50;;;;;;;14.56;76.82;99436.88;5090862;28;20678;-64
2022/09/20 05:40:28;;;;;;;0.43;0.43;;;;;;;14.50;77.87;99429.41;5091995;28;20632;-64
2022/09/20 05:43:02;;;;;;;0.43;0.43;;;;;;;14.54;77.79;99432.69;5084748;28;20582;-63
2022/09/20 05:45:58;;;;;;;0.50;0.50;;;;;;;14.49;76.51;99432.88;5091745;28;20606;-63
2022/09/20 05:48:37;;;;;;;0.50;0.50;;;;;;;14.47;77.67;99447.59;5082895;28;20198;-64
2022/09/20 05:51:14;;;;;;;0.50;0.50;;;;;;;14.48;77.13;99449.25;5090399;28;20227;-64
2022/09/20 05:54:05;;;;;;;0.50;0.50;;;;;;;14.55;76.83;99460.97;5091095;28;20194;-64
2022/09/20 05:56:41;;;;;;;0.50;0.50;;;;;;;14.80;75.74;99459.88;5087666;28;20683;-64
2022/09/20 05:59:29;;;;;;;0.40;0.40;;;;;;;14.97;75.21;99460.75;5095294;28;20224;-63
2022/09/20 06:02:09;;;;;;;0.50;0.50;;;;;;;15.14;76.22;99459.94;5094343;28;20712;-64
2022/09/20 06:04:43;;;;;;;0.40;0.40;;;;;;;15.37;73.78;99458.84;5094969;28;20551;-64
2022/09/20 06:07:24;;;;;;;0.47;0.47;;;;;;;15.40;74.40;99451.78;5095031;28;20236;-62
2022/09/20 06:10:15;;;;;;;0.40;0.40;;;;;;;15.27;72.65;99455.88;5094661;28;20206;-63
2022/09/20 06:12:54;;;;;;;0.47;0.47;;;;;;;15.26;73.43;99451.59;5093027;28;20229;-64
2022/09/20 06:15:29;;;;;;;0.50;0.50;;;;;;;15.48;72.75;99452.25;5094289;28;20256;-64
2022/09/20 06:18:02;;;;;;;0.50;0.50;;;;;;;15.56;71.07;99459.66;5094411;28;20213;-64
2022/09/20 06:20:36;;;;;;;0.60;0.60;;;;;;;15.35;71.32;99448.56;5095156;28;20217;-64
2022/09/20 06:23:06;;;;;;;0.50;0.50;;;;;;;15.30;72.44;99454.88;5095021;28;20196;-64
2022/09/20 06:25:41;;;;;;;0.50;0.50;;;;;;;15.23;73.35;99456.91;5094960;28;20202;-63
2022/09/20 06:28:14;;;;;;;0.50;0.50;;;;;;;15.13;72.43;99458.25;5095241;28;20196;-64
2022/09/20 06:30:46;;;;;;;0.40;0.40;;;;;;;15.04;71.09;99459.56;5094626;28;20215;-63
2022/09/20 06:33:16;;;;;;;0.50;0.50;;;;;;;14.91;69.89;99442.13;5094944;28;20560;-63
2022/09/20 06:35:47;;;;;;;0.43;0.43;;;;;;;14.98;70.80;99456.41;5094731;28;20225;-64
2022/09/20 06:41:28;;;;;;;0.30;0.30;;;;;;;15.03;69.69;99462.19;5094965;28;20230;-64
2022/09/20 06:43:57;;;;;;;0.50;0.50;;;;;;;14.87;69.22;99446.59;5094547;28;20209;-63
2022/09/20 06:46:24;;;;;;;0.47;0.47;;;;;;;14.77;69.72;99450.50;5089544;28;20193;-63
2022/09/20 06:48:51;;;;;;;0.40;0.40;;;;;;;14.84;69.31;99474.28;5094438;28;20199;-64
2022/09/20 06:51:18;;;;;;;0.50;0.50;;;;;;;14.86;70.37;99454.44;5094722;28;20684;-63
2022/09/20 06:53:46;;;;;;;1.17;1.17;;;;;;;15.15;69.87;99477.13;5094638;28;20218;-64
2022/09/20 06:56:18;;;;;;;0.50;0.50;;;;;;;15.48;69.08;99480.69;5094526;28;20214;-64
2022/09/20 06:58:45;;;;;;;0.33;0.33;;;;;;;15.68;66.68;99485.72;5094638;28;20690;-64
2022/09/20 07:01:13;;;;;;;0.40;0.40;;;;;;;15.75;67.42;99479.34;5094377;28;20635;-65
2022/09/20 07:03:40;;;;;;;0.50;0.50;;;;;;;15.90;66.08;99482.03;5094238;28;20199;-64
2022/09/20 07:06:07;;;;;;;0.50;0.50;;;;;;;16.12;65.08;99474.88;5093971;28;20658;-65
2022/09/20 07:08:34;;;;;;;0.50;0.50;;;;;;;16.51;63.58;99490.91;5094093;28;20202;-65
2022/09/20 07:11:05;;;;;;;0.40;0.40;;;;;;;16.71;62.81;99484.69;5093968;28;20241;-64
2022/09/20 07:13:32;;;;;;;0.50;0.50;;;;;;;16.71;63.62;99498.47;5088351;28;20223;-65
2022/09/20 07:16:05;;;;;;;0.30;0.30;;;;;;;16.96;60.57;99486.81;5094309;28;20501;-64
2022/09/20 07:18:33;;;;;;;0.40;0.40;;;;;;;17.14;60.98;99488.38;5093890;28;20199;-63
2022/09/20 07:21:00;;;;;;;0.50;0.50;;;;;;;17.38;60.97;99496.53;5093875;28;20203;-64
2022/09/20 07:23:28;;;;;;;0.50;0.50;;;;;;;17.39;60.36;99491.25;5092712;28;20199;-64
2022/09/20 07:25:58;;;;;;;0.37;0.37;;;;;;;17.38;59.73;99496.53;5094293;28;20195;-65
2022/09/20 07:28:26;;;;;;;0.60;0.60;;;;;;;17.36;61.19;99490.59;5094162;28;20591;-64
2022/09/20 07:30:54;;;;;;;0.40;0.40;;;;;;;17.59;60.23;99498.78;5093863;28;20603;-66
2022/09/20 07:33:23;;;;;;;0.40;0.40;;;;;;;17.93;59.91;99491.66;5094037;28;20219;-65
2022/09/20 07:35:53;;;;;;;0.50;0.50;;;;;;;18.15;58.96;99497.25;5093811;28;20242;-65
2022/09/20 07:38:20;;;;;;;0.40;0.40;;;;;;;18.05;57.96;99488.31;5093714;28;20667;-65
2022/09/20 07:40:54;;;;;;;0.40;0.40;;;;;;;18.11;57.99;99481.03;5093612;28;20209;-65
2022/09/20 07:43:21;;;;;;;0.43;0.43;;;;;;;18.45;56.75;99487.59;5093304;28;20196;-64
2022/09/20 07:45:54;;;;;;;0.40;0.40;;;;;;;18.62;57.08;99482.25;5093589;28;20688;-64
2022/09/20 07:48:21;;;;;;;0.50;0.50;;;;;;;18.56;55.88;99487.81;5093057;28;20208;-65
2022/09/20 07:50:50;;;;;;;0.37;0.37;;;;;;;18.67;57.00;99485.41;5092399;28;20687;-65
2022/09/20 07:53:17;;;;;;;0.40;0.40;;;;;;;18.86;53.98;99477.28;5093305;28;20199;-65
2022/09/20 07:55:44;;;;;;;0.50;0.50;;;;;;;18.96;53.51;99477.56;5093443;28;20211;-65
2022/09/20 07:58:11;;;;;;;0.47;0.47;;;;;;;19.02;54.40;99461.56;5087695;28;20197;-65
2022/09/20 08:00:38;;;;;;;0.40;0.40;;;;;;;19.13;55.88;99479.88;5093414;28;20199;-65
2022/09/20 08:03:06;;;;;;;0.50;0.50;;;;;;;19.23;55.69;99473.19;5092986;28;20199;-66
2022/09/20 08:05:34;;;;;;;0.50;0.50;;;;;;;19.36;53.34;99485.28;5093060;28;20192;-65
2022/09/20 08:08:01;;;;;;;0.40;0.40;;;;;;;19.48;53.46;99483.72;5093401;28;20205;-65
2022/09/20 08:10:28;;;;;;;0.50;0.50;;;;;;;19.53;52.06;99471.22;5092685;28;20598;-64
2022/09/20 08:12:55;;;;;;;0.50;0.50;;;;;;;19.66;52.87;99464.28;5092801;28;20703;-65
2022/09/20 08:15:22;;;;;;;0.30;0.30;;;;;;;19.64;49.74;99453.16;5092899;28;20665;-65
2022/09/20 08:17:48;;;;;;;0.40;0.40;;;;;;;19.91;49.50;99461.72;5093145;28;20207;-65
2022/09/20 08:20:17;;;;;;;0.40;0.40;;;;;;;20.18;52.04;99460.78;5092228;28;20216;-66
2022/09/20 08:22:44;;;;;;;0.40;0.40;;;;;;;20.40;49.92;99459.22;5092727;28;20190;-66
2022/09/20 08:25:10;;;;;;;0.40;0.40;;;;;;;20.54;47.12;99458.28;5092599;28;20246;-65
2022/09/20 08:27:37;;;;;;;0.40;0.40;;;;;;;20.66;44.59;99465.22;5092719;28;20209;-66
2022/09/20 08:30:05;;;;;;;0.30;0.30;;;;;;;20.92;48.26;99456.38;5092844;28;20575;-65
2022/09/20 08:32:32;;;;;;;0.30;0.30;;;;;;;21.09;43.85;99451.75;5092698;28;20214;-65
2022/09/20 08:34:59;;;;;;;0.40;0.40;;;;;;;21.04;44.31;99448.63;5092651;28;20231;-65
2022/09/20 08:37:27;;;;;;;0.30;0.30;;;;;;;21.01;43.18;99446.22;5092463;28;20194;-65
2022/09/20 08:39:54;;;;;;;0.30;0.30;;;;;;;21.01;44.11;99448.84;5092857;28;20214;-65
2022/09/20 08:42:27;;;;;;;0.30;0.30;;;;;;;21.10;44.62;99443.00;5091996;28;20579;-65
2022/09/20 08:44:58;;;;;;;0.30;0.30;;;;;;;21.03;44.97;99447.81;5091368;28;20216;-65
2022/09/20 08:47:28;;;;;;;0.40;0.40;;;;;;;20.95;44.13;99443.13;5092337;28;20201;-65
2022/09/20 08:49:55;;;;;;;0.30;0.30;;;;;;;20.98;44.53;99438.63;5090008;28;20217;-66
2022/09/20 08:52:29;;;;;;;0.40;0.40;;;;;;;20.97;43.46;99429.19;5092277;28;20210;-65
2022/09/20 08:54:58;;;;;;;0.33;0.33;;;;;;;21.07;46.05;99427.53;5092224;28;20251;-65
2022/09/20 08:57:28;;;;;;;0.20;0.20;;;;;;;21.17;46.23;99428.56;5092353;28;20201;-65
2022/09/20 08:59:55;;;;;;;0.30;0.30;;;;;;;21.24;44.97;99414.97;5092233;28;20207;-66
2022/09/20 09:02:22;;;;;;;0.50;0.50;;;;;;;21.26;46.83;99427.91;5092144;28;20230;-65
2022/09/20 09:04:51;;;;;;;0.40;0.40;;;;;;;21.17;44.69;99399.88;5092082;28;20738;-65
2022/09/20 09:07:21;;;;;;;0.40;0.40;;;;;;;21.27;43.33;99419.13;5092295;28;20198;-66
2022/09/20 09:09:54;;;;;;;0.20;0.20;;;;;;;21.42;45.71;99421.44;5092144;28;20676;-66
2022/09/20 09:12:24;;;;;;;0.33;0.33;;;;;;;21.43;45.16;99415.28;5091804;28;21442;-66
2022/09/20 09:14:54;;;;;;;0.30;0.30;;;;;;;21.35;42.90;99409.81;5091953;28;20202;-65
2022/09/20 09:17:24;;;;;;;0.40;0.40;;;;;;;21.25;44.74;99389.75;5091646;28;20627;-65
2022/09/20 09:19:53;;;;;;;0.30;0.30;;;;;;;21.54;44.07;99419.69;5091893;28;20203;-66
2022/09/20 09:22:23;;;;;;;0.40;0.40;;;;;;;21.43;43.68;99415.28;5091577;28;20205;-66
2022/09/20 09:25:21;;;;;;;0.30;0.30;;;;;;;21.61;45.29;99407.88;5091745;28;20205;-66
2022/09/20 09:27:56;;;;;;;0.30;0.30;;;;;;;21.61;43.81;99401.81;5091873;28;20671;-65
2022/09/20 09:30:26;;;;;;;0.37;0.37;;;;;;;21.69;42.07;99415.94;5091536;28;20212;-66
2022/09/20 09:33:13;;;;;;;0.30;0.30;;;;;;;21.83;42.70;99387.03;5090982;28;20691;-66
2022/09/20 09:35:40;;;;;;;0.30;0.30;;;;;;;21.82;42.28;99401.00;5087486;28;20273;-66
2022/09/20 09:38:17;;;;;;;0.30;0.30;;;;;;;21.88;43.89;99397.94;5090526;28;20211;-66
2022/09/20 09:40:52;;;;;;;0.30;0.30;;;;;;;22.04;42.27;99391.56;5091753;28;20754;-66
2022/09/20 09:43:25;;;;;;;0.30;0.30;;;;;;;22.15;41.44;99397.63;5089494;28;20324;-66
2022/09/20 09:45:54;;;;;;;0.30;0.30;;;;;;;22.28;43.42;99387.06;5091701;28;20256;-66
2022/09/20 09:48:24;;;;;;;0.30;0.30;;;;;;;22.32;42.22;99388.47;5091463;28;20203;-66
2022/09/20 09:51:08;;;;;;;0.37;0.37;;;;;;;22.29;43.79;99388.72;5091910;28;20199;-66
2022/09/20 09:53:35;;;;;;;0.30;0.30;;;;;;;22.24;41.61;99396.06;5091116;28;20195;-65
2022/09/20 09:56:21;;;;;;;0.30;0.30;;;;;;;22.15;41.69;99386.34;5091577;28;20217;-66
2022/09/20 09:59:06;;;;;;;0.30;0.30;;;;;;;22.10;41.72;99386.69;5091810;28;20659;-66
2022/09/20 10:01:43;;;;;;;0.30;0.30;;;;;;;22.10;41.55;99378.84;5090340;28;20195;-65
2022/09/20 10:04:17;;;;;;;0.20;0.20;;;;;;;22.21;41.22;99376.25;5091500;28;20210;-67
2022/09/20 10:06:53;;;;;;;0.40;0.40;;;;;;;22.29;41.56;99367.81;5085918;28;20191;-66
2022/09/20 10:09:31;;;;;;;0.30;0.30;;;;;;;22.09;44.17;99373.78;5091187;28;20578;-66
2022/09/20 10:12:13;;;;;;;0.30;0.30;;;;;;;21.97;42.64;99367.72;5091260;28;20580;-66
2022/09/20 10:15:01;;;;;;;0.33;0.33;;;;;;;22.17;45.20;99363.53;5091060;28;20249;-66
2022/09/20 10:17:44;;;;;;;0.30;0.30;;;;;;;22.38;43.28;99367.09;5088936;28;20688;-66
2022/09/20 10:20:29;;;;;;;0.30;0.30;;;;;;;22.46;43.32;99362.06;5091410;28;20206;-65
2022/09/20 10:23:08;;;;;;;0.30;0.30;;;;;;;22.42;41.38;99347.63;5086954;28;20258;-65
2022/09/20 10:25:42;;;;;;;0.23;0.23;;;;;;;22.32;42.29;99346.69;5090666;28;20210;-66
2022/09/20 10:28:24;;;;;;;0.40;0.40;;;;;;;22.28;42.24;99351.31;5091023;28;20290;-65
2022/09/20 10:31:03;;;;;;;0.30;0.30;;;;;;;22.41;45.44;99352.00;5090858;28;20621;-65
2022/09/20 10:33:38;;;;;;;0.23;0.23;;;;;;;22.47;41.59;99348.91;5090743;28;20572;-66
2022/09/20 10:36:17;;;;;;;0.20;0.20;;;;;;;22.69;39.64;99360.28;5091060;28;20195;-66
2022/09/20 10:38:52;;;;;;;0.30;0.30;;;;;;;22.57;40.21;99351.63;5089190;28;20199;-66
2022/09/20 10:44:38;;;;;;;0.20;0.20;;;;;;;22.69;43.45;99361.09;5091118;28;20202;-65
2022/09/20 10:47:14;;;;;;;0.30;0.30;;;;;;;22.63;43.58;99351.13;5090163;28;20234;-66
2022/09/20 10:49:46;;;;;;;0.20;0.20;;;;;;;22.66;40.21;99356.13;5091800;28;20701;-66
2022/09/20 10:52:43;;;;;;;0.30;0.30;;;;;;;22.66;41.22;99337.84;5094600;28;20234;-65
2022/09/20 10:55:25;;;;;;;0.30;0.30;;;;;;;22.72;41.38;99336.50;5094446;28;20762;-66
2022/09/20 10:58:30;;;;;;;0.30;0.30;;;;;;;22.71;40.29;99343.53;5094194;28;20252;-66
2022/09/20 11:01:08;;;;;;;0.33;0.33;;;;;;;22.72;39.48;99339.94;5093088;28;20219;-66
2022/09/20 11:04:10;;;;;;;0.20;0.20;;;;;;;22.68;40.00;99335.91;5094483;28;20264;-66
2022/09/20 11:06:49;;;;;;;0.20;0.20;;;;;;;22.70;39.40;99330.59;5060300;28;20203;-66
2022/09/20 11:09:23;;;;;;;0.30;0.30;;;;;;;22.66;40.50;99324.78;5094694;28;20634;-66
2022/09/20 11:11:54;;;;;;;0.20;0.20;;;;;;;22.74;37.29;99327.59;5093728;28;20254;-66
2022/09/20 11:14:32;;;;;;;0.40;0.40;;;;;;;22.77;37.86;99323.91;5094015;28;20259;-66
2022/09/20 11:17:07;;;;;;;0.40;0.40;;;;;;;22.69;37.84;99324.53;5093668;28;20260;-66
2022/09/20 11:19:47;;;;;;;0.40;0.40;;;;;;;22.77;39.13;99319.50;5088741;28;20198;-66
2022/09/20 11:22:20;;;;;;;0.20;0.20;;;;;;;22.78;37.27;99313.31;5093840;28;20192;-66
2022/09/20 11:24:51;;;;;;;0.30;0.30;;;;;;;22.80;38.40;99321.03;5094103;28;20675;-64
2022/09/20 11:27:23;;;;;;;0.20;0.20;;;;;;;22.63;37.10;99311.91;5091468;28;20282;-66
2022/09/20 11:29:56;;;;;;;0.20;0.20;;;;;;;22.74;37.67;99317.16;5093991;28;20203;-65
2022/09/20 11:32:27;;;;;;;0.20;0.20;;;;;;;22.83;36.94;99315.56;5091623;28;20215;-66
2022/09/20 11:34:59;;;;;;;0.20;0.20;;;;;;;22.81;35.98;99313.06;5093612;28;20771;-66
2022/09/20 11:37:33;;;;;;;0.30;0.30;;;;;;;22.76;36.93;99304.78;5092652;28;20205;-66
2022/09/20 11:40:04;;;;;;;0.40;0.40;;;;;;;22.56;37.11;99302.91;5093584;28;20293;-66
2022/09/20 11:42:35;;;;;;;0.30;0.30;;;;;;;22.55;37.23;99306.50;5093885;28;20195;-65
2022/09/20 11:45:03;;;;;;;0.40;0.40;;;;;;;22.62;39.03;99291.97;5093875;28;20203;-66
2022/09/20 11:47:37;;;;;;;0.30;0.30;;;;;;;22.69;35.57;99301.00;5093542;28;20200;-66
2022/09/20 11:50:37;;;;;;;0.30;0.30;;;;;;;22.78;37.19;99281.16;5093166;28;20214;-66
2022/09/20 11:53:18;;;;;;;0.30;0.30;;;;;;;22.85;35.30;99292.72;5093191;28;20310;-67
2022/09/20 11:55:53;;;;;;;0.30;0.30;;;;;;;22.88;35.30;99277.63;5092601;28;20199;-66
2022/09/20 11:58:21;;;;;;;0.30;0.30;;;;;;;22.98;36.29;99285.53;5093132;28;20203;-66
2022/09/20 12:00:50;;;;;;;0.30;0.30;;;;;;;22.96;37.01;99280.44;5093393;28;20203;-66
2022/09/20 12:03:30;;;;;;;0.30;0.30;;;;;;;22.92;35.96;99283.44;5093199;28;20195;-66
2022/09/20 12:05:59;;;;;;;0.40;0.40;;;;;;;22.87;34.20;99290.84;5088494;28;20205;-66
2022/09/20 12:08:29;;;;;;;0.37;0.37;;;;;;;22.77;34.92;99280.31;5093070;28;20235;-65
2022/09/20 12:11:00;;;;;;;0.30;0.30;;;;;;;22.76;33.25;99296.09;5093131;28;20221;-66
2022/09/20 12:13:28;;;;;;;0.40;0.40;;;;;;;22.74;33.68;99290.19;5092684;28;20310;-65
2022/09/20 12:16:04;;;;;;;0.30;0.30;;;;;;;22.77;34.25;99296.00;5087425;28;20195;-66
2022/09/20 12:18:46;;;;;;;0.30;0.30;;;;;;;22.73;33.88;99294.56;5093053;28;22200;-66
2022/09/20 12:21:16;;;;;;;0.40;0.40;;;;;;;22.69;34.53;99287.94;5089497;28;20195;-67
2022/09/20 12:24:18;;;;;;;0.20;0.20;;;;;;;22.69;34.66;99289.72;5093414;28;20229;-66
2022/09/20 12:26:50;;;;;;;0.30;0.30;;;;;;;22.75;34.59;99286.59;5093229;28;20233;-66